Time;durP1;ratioP1;P1;durP2;ratioP2;P2;SDS_P1;SDS_P2;PMS_P1;PMS_P2;Temp;Humidity;BMP_temperature;BMP_pressure;BME280_temperature;BME280_humidity;BME280_pressure;Samples;Min_cycle;Max_cycle;Signal;HPM_P1;HPM_P2
2022/05/22 00:01:12;;;;;;;2.60;1.67;;;22.60;99.90;;;;;;4194358;28;20725;-81
2022/05/22 00:03:15;;;;;;;3.72;2.13;;;22.50;99.90;;;;;;4192983;28;20211;-81
2022/05/22 00:05:20;;;;;;;5.05;1.85;;;22.50;99.90;;;;;;4193473;28;20280;-81
2022/05/22 00:07:22;;;;;;;4.80;2.25;;;22.50;99.90;;;;;;4190351;28;20578;-81
2022/05/22 00:09:28;;;;;;;3.53;1.75;;;22.50;99.90;;;;;;4194496;28;20292;-81
2022/05/22 00:11:30;;;;;;;4.82;2.05;;;22.50;99.90;;;;;;4194410;28;20214;-81
2022/05/22 00:13:34;;;;;;;3.15;1.80;;;22.50;99.90;;;;;;4194827;28;20265;-82
2022/05/22 00:16:36;;;;;;;3.10;1.90;;;22.50;99.90;;;;;;4194908;28;20607;-82
2022/05/22 00:17:59;;;;;;;4.07;2.00;;;22.50;99.90;;;;;;4193315;28;20223;-82
2022/05/22 00:20:01;;;;;;;3.90;2.30;;;22.50;99.90;;;;;;4194306;28;20740;-82
2022/05/22 00:22:05;;;;;;;4.40;2.20;;;22.50;99.90;;;;;;4195209;28;20207;-82
2022/05/22 00:24:09;;;;;;;2.85;1.80;;;22.50;99.90;;;;;;4198033;28;20218;-82
2022/05/22 00:26:11;;;;;;;5.30;2.08;;;22.50;99.90;;;;;;4197875;28;20243;-82
2022/05/22 00:28:14;;;;;;;4.45;2.30;;;22.50;99.90;;;;;;4196970;28;20230;-82
2022/05/22 00:30:53;;;;;;;3.10;1.98;;;22.50;99.90;;;;;;4196502;28;20272;-79
2022/05/22 00:32:57;;;;;;;5.03;1.88;;;22.50;99.90;;;;;;4196234;28;20671;-80
2022/05/22 00:34:59;;;;;;;4.93;2.22;;;22.40;99.90;;;;;;4194915;28;20264;-80
2022/05/22 00:37:02;;;;;;;3.58;2.00;;;22.40;99.90;;;;;;4197859;28;21002;-80
2022/05/22 00:39:04;;;;;;;4.40;2.03;;;22.40;99.90;;;;;;4195740;28;20273;-80
2022/05/22 00:41:07;;;;;;;3.88;2.30;;;22.40;99.90;;;;;;4196986;28;20203;-80
2022/05/22 00:43:25;;;;;;;4.25;2.05;;;22.40;99.90;;;;;;4197437;28;20284;-80
2022/05/22 00:45:28;;;;;;;4.18;2.20;;;22.40;99.90;;;;;;4197759;28;20235;-80
2022/05/22 00:47:30;;;;;;;3.42;1.88;;;22.40;99.90;;;;;;4197051;28;20256;-80
2022/05/22 00:49:35;;;;;;;3.58;1.90;;;22.40;99.90;;;;;;4197591;28;20264;-80
2022/05/22 00:51:42;;;;;;;3.40;1.90;;;22.40;99.90;;;;;;4196740;28;20207;-80
2022/05/22 00:53:49;;;;;;;4.18;2.10;;;22.40;99.90;;;;;;4197739;28;20660;-80
2022/05/22 00:55:52;;;;;;;4.80;2.40;;;22.40;99.90;;;;;;4197296;28;20260;-80
2022/05/22 00:57:57;;;;;;;3.85;1.83;;;22.40;99.90;;;;;;4197896;28;20223;-80
2022/05/22 01:00:03;;;;;;;5.05;2.05;;;22.40;99.90;;;;;;4195972;28;20261;-80
2022/05/22 01:02:06;;;;;;;4.47;1.92;;;22.40;99.90;;;;;;4195955;28;20684;-80
2022/05/22 01:04:15;;;;;;;3.40;1.92;;;22.40;99.90;;;;;;4196420;28;20639;-80
2022/05/22 01:06:24;;;;;;;5.30;2.00;;;22.40;99.90;;;;;;4197878;28;20280;-80
2022/05/22 01:08:26;;;;;;;3.90;1.80;;;22.40;99.90;;;;;;4195388;28;20296;-80
2022/05/22 01:10:34;;;;;;;3.88;1.90;;;22.40;99.90;;;;;;4197525;28;20227;-80
2022/05/22 01:12:37;;;;;;;4.57;1.80;;;22.40;99.90;;;;;;4196295;28;20215;-80
2022/05/22 01:14:41;;;;;;;3.50;1.67;;;22.40;99.90;;;;;;4196282;28;20856;-80
2022/05/22 01:16:43;;;;;;;2.80;1.80;;;22.30;99.90;;;;;;4197282;28;20265;-80
2022/05/22 01:18:49;;;;;;;2.78;1.60;;;22.40;99.90;;;;;;4196554;28;20211;-80
2022/05/22 01:20:53;;;;;;;4.20;2.10;;;22.40;99.90;;;;;;4193397;28;20219;-80
2022/05/22 01:22:56;;;;;;;3.38;1.88;;;22.30;99.90;;;;;;4195461;28;20215;-80
2022/05/22 01:24:59;;;;;;;4.90;2.15;;;22.40;99.90;;;;;;4196091;28;20980;-80
2022/05/22 01:27:06;;;;;;;4.13;2.10;;;22.30;99.90;;;;;;4197127;28;20214;-80
2022/05/22 01:29:09;;;;;;;4.65;1.75;;;22.30;99.90;;;;;;4197360;28;20218;-80
2022/05/22 01:31:12;;;;;;;3.72;2.15;;;22.30;99.90;;;;;;4195485;28;20223;-80
2022/05/22 01:33:14;;;;;;;2.42;1.67;;;22.30;99.90;;;;;;4196717;28;20215;-80
2022/05/22 01:35:20;;;;;;;3.08;1.80;;;22.30;99.90;;;;;;4195153;28;20648;-80
2022/05/22 01:37:22;;;;;;;3.22;2.00;;;22.30;99.90;;;;;;4196216;28;20922;-80
2022/05/22 01:39:26;;;;;;;3.15;2.10;;;22.30;99.90;;;;;;4196739;28;20211;-80
2022/05/22 01:41:28;;;;;;;3.67;1.85;;;22.30;99.90;;;;;;4195441;28;20223;-80
2022/05/22 01:43:31;;;;;;;2.97;1.83;;;22.30;99.90;;;;;;4195350;28;20268;-80
2022/05/22 01:45:34;;;;;;;4.85;2.08;;;22.30;99.90;;;;;;4194335;28;20280;-80
2022/05/22 01:47:38;;;;;;;4.28;1.75;;;22.30;99.90;;;;;;4195072;28;20219;-80
2022/05/22 01:49:40;;;;;;;3.88;1.85;;;22.30;99.90;;;;;;4195341;28;20211;-80
2022/05/22 01:51:43;;;;;;;3.60;1.80;;;22.30;99.90;;;;;;4195036;28;20219;-80
2022/05/22 01:53:46;;;;;;;5.13;2.20;;;22.30;99.90;;;;;;4195107;28;20223;-80
2022/05/22 01:55:50;;;;;;;3.00;1.70;;;22.30;99.90;;;;;;4196610;28;20227;-80
2022/05/22 01:57:52;;;;;;;3.08;2.10;;;22.30;99.90;;;;;;4194860;28;20230;-80
2022/05/22 01:59:54;;;;;;;4.18;2.00;;;22.30;99.90;;;;;;4195389;28;20211;-80
2022/05/22 02:01:57;;;;;;;4.45;2.13;;;22.30;99.90;;;;;;4195311;28;20292;-80
2022/05/22 02:03:59;;;;;;;3.60;1.88;;;22.30;99.90;;;;;;4195334;28;20288;-80
2022/05/22 02:06:01;;;;;;;4.30;1.95;;;22.30;99.90;;;;;;4195213;28;20257;-80
2022/05/22 02:10:26;;;;;;;4.00;2.35;;;22.30;99.90;;;;;;4195229;28;20613;-81
2022/05/22 02:12:30;;;;;;;3.33;2.00;;;22.30;99.90;;;;;;4195133;28;20227;-81
2022/05/22 02:14:32;;;;;;;3.17;2.03;;;22.30;99.90;;;;;;4195427;28;20223;-81
2022/05/22 02:16:35;;;;;;;2.92;1.85;;;22.30;99.90;;;;;;4194170;28;20288;-80
2022/05/22 02:18:37;;;;;;;4.18;1.92;;;22.20;99.90;;;;;;4195223;28;20215;-80
2022/05/22 02:20:39;;;;;;;2.33;1.70;;;22.20;99.90;;;;;;4195488;28;20227;-80
2022/05/22 02:22:43;;;;;;;4.18;2.10;;;22.20;99.90;;;;;;4196113;28;21730;-80
2022/05/22 02:24:49;;;;;;;3.22;1.88;;;22.30;99.90;;;;;;4194623;28;20264;-80
2022/05/22 02:26:52;;;;;;;4.22;2.08;;;22.20;99.90;;;;;;4195986;28;20230;-80
2022/05/22 02:28:56;;;;;;;4.20;1.85;;;22.30;99.90;;;;;;4195482;28;20257;-80
2022/05/22 02:31:01;;;;;;;4.35;2.28;;;22.30;99.90;;;;;;4194922;28;20654;-80
2022/05/22 02:33:03;;;;;;;2.83;1.92;;;22.20;99.90;;;;;;4195577;28;20219;-80
2022/05/22 02:35:07;;;;;;;4.07;2.10;;;22.20;99.90;;;;;;4195950;28;20206;-80
2022/05/22 02:37:09;;;;;;;3.45;1.77;;;22.20;99.90;;;;;;4195388;28;20216;-81
2022/05/22 02:39:12;;;;;;;3.25;1.73;;;22.20;99.90;;;;;;4193460;28;20740;-81
2022/05/22 02:41:16;;;;;;;4.85;2.30;;;22.20;99.90;;;;;;4196477;28;20266;-81
2022/05/22 02:43:19;;;;;;;2.67;1.77;;;22.20;99.90;;;;;;4195905;28;20214;-81
2022/05/22 02:45:25;;;;;;;3.60;2.10;;;22.20;99.90;;;;;;4195710;28;20215;-81
2022/05/22 02:47:27;;;;;;;3.75;2.10;;;22.20;99.90;;;;;;4195365;28;20238;-81
2022/05/22 02:49:29;;;;;;;3.70;2.17;;;22.20;99.90;;;;;;4193781;28;20757;-80
2022/05/22 02:51:32;;;;;;;3.92;1.90;;;22.20;99.90;;;;;;4194818;28;20276;-80
2022/05/22 02:53:34;;;;;;;4.90;2.45;;;22.20;99.90;;;;;;4195368;28;20223;-80
2022/05/22 02:55:39;;;;;;;3.63;2.15;;;22.20;99.90;;;;;;4195056;28;20949;-80
2022/05/22 02:57:42;;;;;;;3.75;1.95;;;22.20;99.90;;;;;;4194470;28;20655;-80
2022/05/22 02:59:44;;;;;;;3.30;2.13;;;22.20;99.90;;;;;;4195273;28;20276;-80
2022/05/22 03:01:48;;;;;;;5.05;2.25;;;22.20;99.90;;;;;;4193317;28;20211;-80
2022/05/22 03:03:51;;;;;;;3.85;2.00;;;22.20;99.90;;;;;;4194545;28;20277;-80
2022/05/22 03:08:14;;;;;;;3.47;1.80;;;22.20;99.90;;;;;;4193123;28;20239;-80
2022/05/22 03:10:17;;;;;;;4.10;2.17;;;22.20;99.90;;;;;;4195594;28;20215;-80
2022/05/22 03:12:23;;;;;;;3.08;2.00;;;22.20;99.90;;;;;;4195931;28;20215;-80
2022/05/22 03:14:25;;;;;;;3.92;2.38;;;22.20;99.90;;;;;;4195343;28;20662;-80
2022/05/22 03:16:28;;;;;;;2.70;1.92;;;22.20;99.90;;;;;;4195307;28;20215;-80
2022/05/22 03:18:32;;;;;;;4.35;2.00;;;22.20;99.90;;;;;;4195010;28;20223;-80
2022/05/22 03:20:34;;;;;;;3.15;1.88;;;22.10;99.90;;;;;;4194569;28;20265;-80
2022/05/22 03:22:37;;;;;;;4.18;2.08;;;22.10;99.90;;;;;;4194428;28;20264;-81
2022/05/22 03:24:40;;;;;;;4.45;2.33;;;22.20;99.90;;;;;;4194160;28;20222;-80
2022/05/22 03:26:43;;;;;;;3.35;1.90;;;22.10;99.90;;;;;;4194465;28;20258;-80
2022/05/22 03:28:45;;;;;;;3.33;1.92;;;22.10;99.90;;;;;;4193713;28;20222;-80
2022/05/22 03:30:47;;;;;;;3.38;2.10;;;22.10;99.90;;;;;;4194271;28;20231;-80
2022/05/22 03:32:50;;;;;;;4.47;2.40;;;22.10;99.90;;;;;;4194922;28;20617;-80
2022/05/22 03:34:53;;;;;;;4.95;2.30;;;22.20;99.90;;;;;;4194245;28;20211;-80
2022/05/22 03:36:56;;;;;;;3.20;2.05;;;22.10;99.90;;;;;;4192419;28;20207;-79
2022/05/22 03:38:58;;;;;;;3.55;1.70;;;22.10;99.90;;;;;;4193639;28;20257;-80
2022/05/22 03:41:00;;;;;;;4.45;2.10;;;22.10;99.90;;;;;;4193765;28;20222;-80
2022/05/22 03:43:02;;;;;;;3.78;2.00;;;22.10;99.90;;;;;;4194789;28;21172;-80
2022/05/22 03:45:06;;;;;;;4.53;2.00;;;22.10;99.90;;;;;;4194894;28;20216;-81
2022/05/22 03:47:08;;;;;;;4.30;1.98;;;22.10;99.90;;;;;;4194060;28;20268;-80
2022/05/22 03:49:11;;;;;;;3.60;1.65;;;22.10;99.90;;;;;;4194559;28;20223;-80
2022/05/22 03:51:14;;;;;;;4.75;2.33;;;22.10;99.90;;;;;;4193487;28;20219;-80
2022/05/22 03:53:17;;;;;;;5.50;2.55;;;22.10;99.90;;;;;;4194345;28;20268;-80
2022/05/22 03:55:19;;;;;;;3.50;2.25;;;22.10;99.90;;;;;;4194450;28;20218;-80
2022/05/22 03:57:21;;;;;;;4.32;2.05;;;22.10;99.90;;;;;;4193361;28;20215;-80
2022/05/22 03:59:24;;;;;;;2.70;1.83;;;22.10;99.90;;;;;;4194281;28;20202;-81
2022/05/22 04:01:27;;;;;;;4.63;2.30;;;22.10;99.90;;;;;;4192509;28;20215;-80
2022/05/22 04:03:29;;;;;;;3.70;2.22;;;22.10;99.90;;;;;;4192312;28;20212;-81
2022/05/22 04:05:31;;;;;;;4.55;2.13;;;22.10;99.90;;;;;;4193886;28;20257;-81
2022/05/22 04:07:38;;;;;;;2.70;1.90;;;22.10;99.90;;;;;;4193999;28;20242;-81
2022/05/22 04:09:40;;;;;;;4.35;1.67;;;22.10;99.90;;;;;;4177360;28;20235;-80
2022/05/22 04:11:43;;;;;;;4.20;2.22;;;22.10;99.90;;;;;;4177789;28;20604;-81
2022/05/22 04:13:46;;;;;;;2.97;2.10;;;22.10;99.90;;;;;;4177578;28;20223;-81
2022/05/22 04:15:48;;;;;;;4.05;2.00;;;22.10;99.90;;;;;;4176939;28;20216;-81
2022/05/22 04:17:50;;;;;;;2.97;1.85;;;22.10;99.90;;;;;;4177591;28;20220;-80
2022/05/22 04:19:53;;;;;;;4.03;2.38;;;22.10;99.90;;;;;;4177285;28;20269;-81
2022/05/22 04:21:55;;;;;;;3.20;1.92;;;22.10;99.90;;;;;;4177478;28;20274;-81
2022/05/22 04:26:18;;;;;;;3.53;2.03;;;22.10;99.90;;;;;;4177521;28;20673;-81
2022/05/22 04:28:20;;;;;;;4.20;2.03;;;22.10;99.90;;;;;;4175895;28;20639;-81
2022/05/22 04:30:23;;;;;;;4.57;1.85;;;22.10;99.90;;;;;;4176897;28;20281;-81
2022/05/22 04:32:26;;;;;;;3.58;2.00;;;22.10;99.90;;;;;;4176595;28;20216;-76
2022/05/22 04:34:28;;;;;;;3.40;2.08;;;22.10;99.90;;;;;;4176260;28;20333;-76
2022/05/22 04:36:31;;;;;;;3.97;2.08;;;22.00;99.90;;;;;;4176678;28;20273;-76
2022/05/22 04:38:33;;;;;;;3.58;2.03;;;22.00;99.90;;;;;;4175899;28;20282;-79
2022/05/22 04:40:37;;;;;;;3.25;2.10;;;22.10;99.90;;;;;;4176614;28;20285;-83
2022/05/22 04:42:40;;;;;;;3.17;2.00;;;22.10;99.90;;;;;;4178086;28;20215;-84
2022/05/22 04:44:42;;;;;;;3.28;2.08;;;22.10;99.90;;;;;;4177393;28;20270;-83
2022/05/22 04:46:45;;;;;;;4.22;2.15;;;22.10;99.90;;;;;;4177239;28;20265;-83
2022/05/22 04:48:48;;;;;;;3.95;2.10;;;22.10;99.90;;;;;;4177654;28;20219;-83
2022/05/22 04:50:52;;;;;;;4.07;1.70;;;22.00;99.90;;;;;;4177014;28;20212;-83
2022/05/22 04:52:56;;;;;;;4.65;2.00;;;22.10;99.90;;;;;;4177264;28;20220;-84
2022/05/22 04:54:58;;;;;;;4.65;2.20;;;22.10;99.90;;;;;;4175829;28;20211;-83
2022/05/22 04:57:02;;;;;;;4.05;2.20;;;22.10;99.90;;;;;;4174788;28;20216;-82
2022/05/22 04:59:04;;;;;;;3.80;1.90;;;22.10;99.90;;;;;;4177374;28;20379;-83
2022/05/22 05:01:08;;;;;;;3.20;1.90;;;22.00;99.90;;;;;;4177299;28;20212;-82
2022/05/22 05:03:10;;;;;;;2.58;2.10;;;22.10;99.90;;;;;;4176842;28;20207;-83
2022/05/22 05:05:12;;;;;;;4.35;2.20;;;22.10;99.90;;;;;;4177716;28;20250;-83
2022/05/22 05:07:15;;;;;;;5.13;2.20;;;22.10;99.90;;;;;;4176694;28;20239;-81
2022/05/22 05:09:17;;;;;;;5.65;2.00;;;22.10;99.90;;;;;;4192549;28;20231;-81
2022/05/22 05:11:20;;;;;;;5.40;2.38;;;22.00;99.90;;;;;;4197141;28;20215;-81
2022/05/22 05:13:24;;;;;;;3.63;2.17;;;22.10;99.90;;;;;;4196248;28;20702;-81
2022/05/22 05:15:29;;;;;;;3.35;1.90;;;22.00;99.90;;;;;;4197534;28;20256;-81
2022/05/22 05:17:32;;;;;;;3.13;1.90;;;22.00;99.90;;;;;;4194607;28;20268;-81
2022/05/22 05:19:34;;;;;;;3.55;2.00;;;22.10;99.90;;;;;;4197053;28;20215;-81
2022/05/22 05:21:36;;;;;;;3.63;1.90;;;22.00;99.90;;;;;;4196781;28;20272;-81
2022/05/22 05:23:39;;;;;;;3.38;2.10;;;22.00;99.90;;;;;;4195758;28;20288;-81
2022/05/22 05:25:41;;;;;;;3.70;2.03;;;22.00;99.90;;;;;;4196551;28;20272;-81
2022/05/22 05:27:44;;;;;;;3.55;1.83;;;22.00;99.90;;;;;;4196225;28;20231;-81
2022/05/22 05:29:48;;;;;;;4.78;2.30;;;22.00;99.90;;;;;;4196382;28;20260;-81
2022/05/22 05:31:50;;;;;;;4.53;2.00;;;22.00;99.90;;;;;;4196571;28;20679;-81
2022/05/22 05:33:53;;;;;;;4.72;2.30;;;22.00;99.90;;;;;;4196621;28;20778;-81
2022/05/22 05:35:55;;;;;;;3.95;2.05;;;22.00;99.90;;;;;;4195825;28;20211;-81
2022/05/22 05:37:57;;;;;;;4.00;2.17;;;22.00;99.90;;;;;;4195725;28;20215;-81
2022/05/22 05:39:59;;;;;;;4.18;2.25;;;22.10;99.90;;;;;;4195808;28;20219;-81
2022/05/22 05:42:02;;;;;;;4.10;1.90;;;22.00;99.90;;;;;;4196468;28;20276;-81
2022/05/22 05:44:06;;;;;;;3.53;1.90;;;22.10;99.90;;;;;;4196563;28;20256;-81
2022/05/22 05:46:11;;;;;;;2.92;2.08;;;22.10;99.90;;;;;;4195493;28;20240;-81
2022/05/22 05:48:14;;;;;;;5.07;2.15;;;22.00;99.90;;;;;;4196115;28;20642;-81
2022/05/22 05:50:20;;;;;;;3.22;1.88;;;22.00;99.90;;;;;;4195835;28;20227;-81
2022/05/22 05:52:23;;;;;;;5.10;2.17;;;22.00;99.90;;;;;;4196243;28;20838;-81
2022/05/22 05:54:25;;;;;;;3.78;2.28;;;22.00;99.90;;;;;;4195775;28;20280;-81
2022/05/22 05:56:27;;;;;;;3.65;2.03;;;22.00;99.90;;;;;;4195497;28;20264;-81
2022/05/22 05:58:30;;;;;;;3.00;1.95;;;22.00;99.90;;;;;;4195814;28;20272;-81
2022/05/22 06:00:32;;;;;;;3.35;1.92;;;22.00;99.90;;;;;;4194558;28;20296;-82
2022/05/22 06:02:36;;;;;;;4.07;2.25;;;22.00;99.90;;;;;;4194009;28;20268;-82
2022/05/22 06:04:39;;;;;;;4.10;2.00;;;22.00;99.90;;;;;;4195883;28;20679;-82
2022/05/22 06:06:41;;;;;;;4.13;2.38;;;22.10;99.90;;;;;;4196713;28;20296;-82
2022/05/22 06:08:44;;;;;;;3.83;1.92;;;22.10;99.90;;;;;;4195192;28;20273;-82
2022/05/22 06:10:46;;;;;;;5.05;1.88;;;22.10;99.90;;;;;;4195328;28;20608;-82
2022/05/22 06:12:49;;;;;;;3.47;2.17;;;22.00;99.90;;;;;;4195875;28;20234;-82
2022/05/22 06:14:51;;;;;;;3.38;1.98;;;22.10;99.90;;;;;;4195556;28;20215;-82
2022/05/22 06:16:53;;;;;;;3.58;2.10;;;22.10;99.90;;;;;;4196681;28;20656;-82
2022/05/22 06:18:57;;;;;;;3.42;2.08;;;22.10;99.90;;;;;;4195913;28;20207;-82
2022/05/22 06:20:59;;;;;;;4.38;2.03;;;22.10;99.90;;;;;;4195955;28;20206;-82
2022/05/22 06:23:03;;;;;;;3.50;1.92;;;22.10;99.90;;;;;;4196499;28;20219;-82
2022/05/22 06:25:08;;;;;;;5.50;2.17;;;22.10;99.90;;;;;;4196179;28;20218;-82
2022/05/22 06:27:11;;;;;;;2.80;1.85;;;22.10;99.90;;;;;;4196382;28;20219;-82
2022/05/22 06:29:14;;;;;;;4.22;2.10;;;22.00;99.90;;;;;;4196058;28;20764;-82
2022/05/22 06:31:17;;;;;;;4.78;2.10;;;22.10;99.90;;;;;;4196349;28;20623;-82
2022/05/22 06:33:20;;;;;;;3.45;2.20;;;22.10;99.90;;;;;;4195790;28;20897;-81
2022/05/22 06:35:24;;;;;;;4.03;1.98;;;22.10;99.90;;;;;;4196218;28;20215;-81
2022/05/22 06:37:27;;;;;;;4.70;2.10;;;22.10;99.90;;;;;;4192387;28;20212;-81
2022/05/22 06:41:46;;;;;;;2.28;1.90;;;22.00;99.90;;;;;;4192635;28;20207;-81
2022/05/22 06:43:49;;;;;;;3.92;2.00;;;22.10;99.90;;;;;;4191817;28;20216;-81
2022/05/22 06:45:52;;;;;;;3.97;1.90;;;22.10;99.90;;;;;;4194058;28;20750;-81
2022/05/22 06:47:54;;;;;;;2.92;1.70;;;22.00;99.90;;;;;;4196121;28;20219;-81
2022/05/22 06:49:58;;;;;;;2.65;1.85;;;22.10;99.90;;;;;;4195505;28;20289;-81
2022/05/22 06:52:01;;;;;;;3.40;1.80;;;22.00;99.90;;;;;;4196095;28;20215;-81
2022/05/22 06:54:04;;;;;;;4.70;2.38;;;22.10;99.90;;;;;;4193784;28;20219;-82
2022/05/22 06:56:06;;;;;;;3.40;1.88;;;22.00;99.90;;;;;;4194661;28;20219;-81
2022/05/22 06:58:09;;;;;;;2.53;1.75;;;22.10;99.90;;;;;;4196210;28;20227;-81
2022/05/22 07:00:16;;;;;;;2.65;1.70;;;22.10;99.90;;;;;;4194289;28;20218;-81
2022/05/22 07:02:18;;;;;;;3.45;1.88;;;22.10;99.90;;;;;;4195135;28;20218;-81
2022/05/22 07:04:21;;;;;;;3.65;2.15;;;22.10;99.90;;;;;;4193961;28;20241;-81
2022/05/22 07:06:23;;;;;;;3.25;1.92;;;22.10;99.90;;;;;;4194728;28;20211;-82
2022/05/22 07:08:27;;;;;;;5.75;2.38;;;22.10;99.90;;;;;;4193252;28;20234;-81
2022/05/22 07:12:46;;;;;;;5.65;2.47;;;22.00;99.90;;;;;;4193867;28;20261;-80
2022/05/22 07:14:53;;;;;;;5.32;2.40;;;22.00;99.90;;;;;;4194129;28;20219;-80
2022/05/22 07:16:57;;;;;;;7.28;2.85;;;22.00;99.90;;;;;;4193519;28;20243;-80
2022/05/22 07:18:59;;;;;;;10.30;3.33;;;21.90;99.90;;;;;;4192745;28;20207;-79
2022/05/22 07:21:02;;;;;;;7.82;2.55;;;21.60;99.90;;;;;;4194789;28;20279;-80
2022/05/22 07:23:04;;;;;;;4.85;2.25;;;21.70;99.90;;;;;;4194404;28;20741;-80
2022/05/22 07:25:09;;;;;;;7.97;2.42;;;21.80;99.90;;;;;;4194266;28;20257;-80
2022/05/22 07:27:11;;;;;;;4.97;2.30;;;21.90;99.90;;;;;;4193226;28;20804;-80
2022/05/22 07:29:14;;;;;;;3.80;1.88;;;22.00;99.90;;;;;;4194283;28;20249;-80
2022/05/22 07:31:17;;;;;;;3.85;1.83;;;22.00;99.90;;;;;;4194068;28;20214;-80
2022/05/22 07:33:20;;;;;;;5.55;2.13;;;22.00;99.90;;;;;;4193839;28;20245;-80
2022/05/22 07:35:22;;;;;;;4.45;1.80;;;22.10;99.90;;;;;;4194288;28;20242;-80
2022/05/22 07:37:25;;;;;;;4.55;1.75;;;22.10;99.90;;;;;;4193295;28;20206;-79
2022/05/22 07:39:28;;;;;;;5.13;2.08;;;22.10;99.90;;;;;;4194631;28;20987;-80
2022/05/22 07:41:32;;;;;;;6.20;2.33;;;22.20;99.90;;;;;;4193658;28;20273;-80
2022/05/22 07:43:34;;;;;;;3.72;1.88;;;22.20;99.90;;;;;;4193743;28;20223;-81
2022/05/22 07:45:37;;;;;;;6.28;2.17;;;22.20;99.90;;;;;;4191276;28;20227;-80
2022/05/22 07:47:39;;;;;;;4.18;2.00;;;22.20;99.90;;;;;;4193661;28;20264;-80
2022/05/22 07:52:04;;;;;;;4.80;2.28;;;22.30;99.90;;;;;;4193221;28;20651;-80
2022/05/22 07:54:07;;;;;;;5.75;2.00;;;22.30;99.90;;;;;;4193646;28;20603;-80
2022/05/22 07:56:11;;;;;;;5.63;1.95;;;22.30;99.90;;;;;;4193633;28;20211;-80
2022/05/22 07:58:15;;;;;;;3.70;1.42;;;22.30;99.90;;;;;;4192384;28;20222;-81
2022/05/22 08:00:19;;;;;;;5.10;2.03;;;22.30;99.90;;;;;;4191821;28;20651;-80
2022/05/22 08:02:22;;;;;;;3.42;1.85;;;22.30;99.90;;;;;;4192331;28;20267;-80
2022/05/22 08:04:24;;;;;;;3.95;1.80;;;22.30;99.90;;;;;;4191521;28;20219;-80
2022/05/22 08:06:26;;;;;;;3.30;1.70;;;22.40;99.90;;;;;;4193269;28;20215;-80
2022/05/22 08:08:29;;;;;;;4.60;2.17;;;22.40;99.90;;;;;;4191383;28;20284;-80
2022/05/22 08:10:31;;;;;;;3.88;2.00;;;22.40;99.90;;;;;;4191721;28;20218;-80
2022/05/22 08:12:36;;;;;;;3.85;2.08;;;22.40;99.90;;;;;;4191847;28;20215;-81
2022/05/22 08:14:40;;;;;;;3.00;1.80;;;22.40;99.90;;;;;;4192373;28;20219;-80
2022/05/22 08:16:43;;;;;;;2.80;1.70;;;22.50;99.90;;;;;;4194049;28;20650;-80
2022/05/22 08:18:45;;;;;;;4.53;1.67;;;22.40;99.90;;;;;;4189831;28;20215;-80
2022/05/22 08:20:49;;;;;;;6.70;2.13;;;22.50;99.90;;;;;;4193843;28;20215;-80
2022/05/22 08:22:55;;;;;;;2.80;1.65;;;22.50;99.90;;;;;;4192059;28;20304;-80
2022/05/22 08:24:58;;;;;;;2.97;2.00;;;22.50;99.90;;;;;;4191284;28;20256;-80
2022/05/22 08:27:00;;;;;;;2.65;1.70;;;22.50;99.90;;;;;;4192186;28;20218;-80
2022/05/22 08:29:02;;;;;;;4.15;2.10;;;22.50;99.90;;;;;;4192703;28;20238;-80
2022/05/22 08:31:06;;;;;;;3.58;1.90;;;22.50;99.90;;;;;;4191294;28;20652;-81
2022/05/22 08:33:09;;;;;;;3.72;1.73;;;22.50;99.90;;;;;;4188675;28;20267;-80
2022/05/22 08:35:23;;;;;;;3.50;1.98;;;22.50;99.90;;;;;;4193548;28;20277;-80
2022/05/22 08:37:25;;;;;;;6.78;2.05;;;22.50;99.90;;;;;;4192123;28;20612;-78
2022/05/22 08:39:28;;;;;;;6.65;2.45;;;22.50;99.90;;;;;;4192098;28;20259;-80
2022/05/22 08:41:34;;;;;;;6.60;2.40;;;22.50;99.90;;;;;;4188874;28;20215;-81
2022/05/22 08:43:44;;;;;;;7.25;2.70;;;22.50;99.90;;;;;;4192800;28;20268;-81
2022/05/22 08:45:53;;;;;;;7.63;2.40;;;22.50;99.90;;;;;;4193382;28;20264;-79
2022/05/22 08:48:06;;;;;;;10.15;2.80;;;22.50;99.90;;;;;;4195250;28;20867;-79
2022/05/22 08:50:11;;;;;;;7.22;2.53;;;22.50;99.90;;;;;;4194522;28;20231;-79
2022/05/22 08:52:17;;;;;;;7.90;2.78;;;22.50;99.90;;;;;;4195212;28;20312;-80
2022/05/22 08:54:26;;;;;;;6.00;2.17;;;22.50;99.90;;;;;;4188294;28;20226;-80
2022/05/22 08:59:02;;;;;;;5.20;2.35;;;22.40;99.90;;;;;;4196393;28;20199;-79
2022/05/22 09:01:10;;;;;;;5.30;2.00;;;22.50;99.90;;;;;;4191920;28;20273;-80
2022/05/22 09:03:18;;;;;;;8.25;2.22;;;22.50;99.90;;;;;;4194727;28;20268;-80
2022/05/22 09:05:23;;;;;;;5.10;2.03;;;22.50;99.90;;;;;;4194429;28;20267;-80
2022/05/22 09:07:36;;;;;;;7.13;2.17;;;22.50;99.90;;;;;;4193805;28;20215;-80
2022/05/22 09:09:40;;;;;;;6.57;2.40;;;22.50;99.90;;;;;;4195414;28;20230;-80
2022/05/22 09:11:58;;;;;;;7.35;2.08;;;22.50;99.90;;;;;;4195045;28;20355;-79
2022/05/22 09:14:06;;;;;;;6.38;2.25;;;22.50;99.90;;;;;;4195361;28;20843;-79
2022/05/22 09:16:13;;;;;;;4.53;1.88;;;22.50;99.90;;;;;;4193873;28;20219;-80
2022/05/22 09:18:27;;;;;;;6.40;2.30;;;22.50;99.90;;;;;;4194609;28;20215;-80
2022/05/22 09:20:49;;;;;;;6.47;2.30;;;22.50;99.90;;;;;;4194814;28;20236;-79
2022/05/22 09:23:07;;;;;;;5.40;2.20;;;22.50;99.90;;;;;;4192931;28;20237;-79
2022/05/22 09:25:20;;;;;;;6.88;2.20;;;22.50;99.90;;;;;;4195064;28;20217;-78
2022/05/22 09:27:30;;;;;;;4.90;2.30;;;22.50;99.90;;;;;;4194114;28;20218;-79
2022/05/22 09:29:53;;;;;;;5.10;1.80;;;22.50;99.90;;;;;;4194425;28;20260;-78
2022/05/22 09:32:04;;;;;;;6.13;1.92;;;22.50;99.90;;;;;;4193260;28;20272;-79
2022/05/22 09:34:17;;;;;;;6.35;2.45;;;22.50;99.90;;;;;;4194287;28;20211;-79
2022/05/22 09:36:27;;;;;;;5.32;2.10;;;22.50;99.90;;;;;;4191774;28;20257;-79
2022/05/22 09:38:44;;;;;;;7.20;1.92;;;22.60;99.90;;;;;;4194729;28;20211;-79
2022/05/22 09:40:49;;;;;;;5.45;1.85;;;22.50;99.90;;;;;;4194775;28;20555;-79
2022/05/22 09:43:15;;;;;;;4.88;2.00;;;22.50;99.90;;;;;;4193124;28;20211;-79
2022/05/22 09:45:30;;;;;;;6.45;2.20;;;22.50;99.70;;;;;;4183436;28;20268;-80
2022/05/22 09:48:03;;;;;;;3.80;2.17;;;22.50;99.70;;;;;;4194000;28;20215;-80
2022/05/22 09:50:23;;;;;;;5.93;2.42;;;22.50;99.60;;;;;;4192113;28;20653;-79
2022/05/22 09:52:35;;;;;;;5.63;2.40;;;22.50;99.80;;;;;;4192995;28;20214;-79
2022/05/22 09:54:53;;;;;;;7.88;2.63;;;22.50;99.50;;;;;;4193707;28;20207;-79
2022/05/22 09:57:20;;;;;;;6.13;2.50;;;22.50;99.20;;;;;;4192971;28;20564;-79
2022/05/22 09:59:49;;;;;;;5.40;2.20;;;22.50;99.70;;;;;;4191136;28;20608;-81
2022/05/22 10:01:57;;;;;;;3.17;1.80;;;22.50;99.60;;;;;;4192312;28;20265;-79
2022/05/22 10:04:15;;;;;;;4.85;2.03;;;22.50;99.20;;;;;;4194639;28;20225;-80
2022/05/22 10:06:31;;;;;;;6.45;2.17;;;22.50;99.70;;;;;;4194360;28;20215;-79
2022/05/22 10:08:43;;;;;;;3.80;1.77;;;22.60;99.90;;;;;;4193742;28;20273;-79
2022/05/22 10:10:51;;;;;;;4.03;1.90;;;22.50;99.90;;;;;;4193710;28;20235;-80
2022/05/22 10:13:00;;;;;;;4.30;2.08;;;22.60;99.90;;;;;;4195439;28;20218;-79
2022/05/22 10:15:17;;;;;;;4.22;1.90;;;22.60;99.90;;;;;;4195089;28;20223;-79
2022/05/22 10:17:30;;;;;;;3.22;2.00;;;22.50;99.90;;;;;;4193673;28;20308;-78
2022/05/22 10:19:44;;;;;;;3.80;1.70;;;22.60;99.90;;;;;;4194706;28;20745;-79
2022/05/22 10:21:52;;;;;;;3.05;1.90;;;22.60;99.90;;;;;;4193379;28;20222;-79
2022/05/22 10:24:15;;;;;;;4.43;1.98;;;22.60;99.90;;;;;;4194292;28;20268;-80
2022/05/22 10:26:30;;;;;;;3.47;1.85;;;22.60;99.90;;;;;;4194430;28;20219;-79
2022/05/22 10:28:37;;;;;;;2.80;1.80;;;22.60;99.90;;;;;;4193271;28;20233;-79
2022/05/22 10:30:44;;;;;;;4.28;1.70;;;22.60;99.90;;;;;;4193655;28;20690;-79
2022/05/22 10:32:50;;;;;;;5.50;1.90;;;22.60;99.90;;;;;;4192956;28;20211;-79
2022/05/22 10:35:00;;;;;;;6.15;2.25;;;22.60;99.90;;;;;;4194557;28;20219;-79
2022/05/22 10:37:13;;;;;;;3.35;1.80;;;22.60;99.90;;;;;;4194361;28;20230;-79
2022/05/22 10:39:16;;;;;;;4.20;2.00;;;22.60;99.90;;;;;;4192330;28;20219;-79
2022/05/22 10:43:47;;;;;;;2.88;1.70;;;22.60;99.90;;;;;;4194132;28;20191;-79
2022/05/22 10:45:50;;;;;;;3.70;2.08;;;22.60;99.90;;;;;;4193758;28;20264;-79
2022/05/22 10:47:53;;;;;;;5.13;1.98;;;22.60;99.90;;;;;;4193028;28;20260;-79
2022/05/22 10:49:56;;;;;;;4.85;1.98;;;22.60;99.90;;;;;;4194015;28;20288;-79
2022/05/22 10:52:00;;;;;;;3.85;2.17;;;22.60;99.90;;;;;;4193051;28;20215;-79
2022/05/22 10:54:04;;;;;;;5.32;1.98;;;22.60;99.90;;;;;;4193506;28;20215;-79
2022/05/22 10:56:18;;;;;;;2.85;1.70;;;22.60;99.90;;;;;;4191089;28;20211;-79
2022/05/22 10:58:26;;;;;;;3.38;1.88;;;22.60;99.90;;;;;;4191032;28;20731;-79
2022/05/22 11:00:29;;;;;;;3.20;1.70;;;22.60;99.90;;;;;;4191855;28;20257;-79
2022/05/22 11:02:33;;;;;;;4.45;1.60;;;22.60;99.90;;;;;;4191885;28;20276;-80
2022/05/22 11:04:38;;;;;;;4.22;1.88;;;22.60;99.90;;;;;;4192429;28;20629;-79
2022/05/22 11:06:53;;;;;;;3.55;1.83;;;22.60;99.90;;;;;;4193004;28;20219;-78
2022/05/22 11:08:57;;;;;;;3.38;1.90;;;22.60;99.90;;;;;;4193780;28;20238;-79
2022/05/22 11:11:12;;;;;;;3.33;2.10;;;22.70;99.90;;;;;;4193116;28;20857;-79